createdAt,value
2022-09-28T00:01:53.852Z,99207.84
2022-09-28T00:04:43.330Z,99212.62
2022-09-28T00:07:32.080Z,99213.94
2022-09-28T00:10:22.483Z,99213.60
2022-09-28T00:13:11.023Z,99213.86
2022-09-28T00:16:06.904Z,99207.40
2022-09-28T00:18:56.316Z,99213.42
2022-09-28T00:21:44.662Z,99214.39
2022-09-28T00:24:33.622Z,99205.83
2022-09-28T00:27:24.012Z,99199.13
2022-09-28T00:30:15.877Z,99205.19
2022-09-28T00:33:04.802Z,99195.79
2022-09-28T00:36:00.128Z,99202.44
2022-09-28T00:38:49.071Z,99198.64
2022-09-28T00:41:38.438Z,99196.45
2022-09-28T00:44:39.687Z,99195.89
2022-09-28T00:47:49.563Z,99191.27
2022-09-28T00:50:40.277Z,99183.75
2022-09-28T00:53:35.440Z,99184.01
2022-09-28T00:56:29.062Z,99182.62
2022-09-28T00:59:17.673Z,99179.16
2022-09-28T01:02:06.661Z,99181.26
2022-09-28T01:04:57.400Z,99187.08
2022-09-28T01:07:48.844Z,99189.97
2022-09-28T01:10:39.400Z,99191.84
2022-09-28T01:13:30.909Z,99192.06
2022-09-28T01:16:29.252Z,99197.09
2022-09-28T01:19:44.415Z,99191.75
2022-09-28T01:22:54.670Z,99196.27
2022-09-28T01:25:52.437Z,99201.86
2022-09-28T01:28:44.267Z,99199.67
2022-09-28T01:31:35.047Z,99210.33
2022-09-28T01:34:30.955Z,99208.72
2022-09-28T01:37:22.355Z,99217.77
2022-09-28T01:40:12.214Z,99215.32
2022-09-28T01:43:05.966Z,99216.37
2022-09-28T01:45:56.713Z,99212.91
2022-09-28T01:48:50.694Z,99210.47
2022-09-28T01:51:44.854Z,99221.13
2022-09-28T01:54:37.133Z,99232.62
2022-09-28T01:57:32.531Z,99229.39
2022-09-28T02:00:24.322Z,99230.44
2022-09-28T02:03:16.666Z,99239.48
2022-09-28T02:06:13.079Z,99244.47
2022-09-28T02:09:11.378Z,99253.77
2022-09-28T02:12:11.046Z,99259.09
2022-09-28T02:15:12.791Z,99256.65
2022-09-28T02:18:01.370Z,99265.69
2022-09-28T02:20:57.491Z,99258.99
2022-09-28T02:23:52.412Z,99265.38
2022-09-28T02:26:45.831Z,99264.23
2022-09-28T02:29:34.407Z,99260.73
2022-09-28T02:32:24.393Z,99255.66
2022-09-28T02:35:15.591Z,99263.08
2022-09-28T02:38:04.078Z,99272.13
2022-09-28T02:41:03.285Z,99263.30
2022-09-28T02:44:03.782Z,99265.97
2022-09-28T02:46:59.268Z,99270.50
2022-09-28T02:50:00.753Z,99276.05
2022-09-28T02:53:19.921Z,99266.70
2022-09-28T02:56:31.495Z,99267.73
2022-09-28T02:59:33.395Z,99266.91
2022-09-28T03:02:29.122Z,99260.54
2022-09-28T03:05:23.899Z,99260.54
2022-09-28T03:08:20.498Z,99257.08
2022-09-28T03:11:17.262Z,99263.20
2022-09-28T03:14:08.679Z,99266.91
2022-09-28T03:17:20.785Z,99262.63
2022-09-28T03:20:12.051Z,99270.63
2022-09-28T03:23:23.158Z,99269.83
2022-09-28T03:26:10.962Z,99266.34
2022-09-28T03:28:59.354Z,99267.16
2022-09-28T03:31:48.990Z,99272.50
2022-09-28T03:34:37.478Z,99274.11
2022-09-28T03:37:28.320Z,99270.63
2022-09-28T03:40:16.602Z,99273.29
2022-09-28T03:43:05.379Z,99273.29
2022-09-28T03:45:55.672Z,99268.21
2022-09-28T03:48:44.938Z,99279.34
2022-09-28T03:51:33.284Z,99280.14
2022-09-28T03:54:22.653Z,99276.90
2022-09-28T03:57:11.000Z,99289.64
2022-09-28T03:59:59.959Z,99297.89
2022-09-28T04:02:49.328Z,99295.44
2022-09-28T04:05:40.745Z,99294.07
2022-09-28T04:08:30.326Z,99305.98
2022-09-28T04:11:19.082Z,99305.66
2022-09-28T04:14:07.836Z,99301.84
2022-09-28T04:16:56.807Z,99305.77
2022-09-28T04:19:47.446Z,99306.81
2022-09-28T04:23:05.634Z,99312.39
2022-09-28T04:25:54.594Z,99308.11
2022-09-28T04:29:16.682Z,99305.20
2022-09-28T04:32:16.953Z,99322.00
2022-09-28T04:35:09.302Z,99320.13
2022-09-28T04:37:57.945Z,99315.85
2022-09-28T04:40:49.770Z,99314.59
2022-09-28T04:43:39.145Z,99321.28
2022-09-28T04:46:28.308Z,99332.77
2022-09-28T04:49:48.822Z,99333.81
2022-09-28T04:52:47.189Z,99332.19
2022-09-28T04:55:36.552Z,99328.48
2022-09-28T04:58:25.722Z,99323.16
2022-09-28T05:05:34.569Z,99334.39
2022-09-28T05:08:39.295Z,99333.56
2022-09-28T05:11:28.261Z,99337.27
2022-09-28T05:14:17.216Z,99344.22
2022-09-28T05:17:05.973Z,99342.38
2022-09-28T05:20:20.328Z,99342.12
2022-09-28T05:23:12.478Z,99341.91
2022-09-28T05:26:04.391Z,99350.48
2022-09-28T05:28:53.352Z,99362.76
2022-09-28T05:32:01.903Z,99366.00
2022-09-28T05:35:10.943Z,99369.45
2022-09-28T05:38:05.647Z,99375.15
2022-09-28T05:40:55.560Z,99368.78
2022-09-28T05:43:45.253Z,99365.64
2022-09-28T05:46:34.615Z,99366.22
2022-09-28T05:49:23.582Z,99366.55
2022-09-28T05:52:12.338Z,99367.95
2022-09-28T05:55:02.526Z,99361.91
2022-09-28T05:57:53.125Z,99368.39
2022-09-28T06:00:42.288Z,99370.37
2022-09-28T06:03:31.664Z,99364.09
2022-09-28T06:06:21.435Z,99368.80
2022-09-28T06:09:10.805Z,99367.64
2022-09-28T06:12:00.938Z,99366.44
2022-09-28T06:15:03.262Z,99367.69
2022-09-28T06:17:58.160Z,99370.55
2022-09-28T06:21:25.626Z,99375.85
2022-09-28T06:24:15.040Z,99374.42
2022-09-28T06:27:03.748Z,99375.42
2022-09-28T06:29:53.119Z,99371.09
2022-09-28T06:32:43.511Z,99384.37
2022-09-28T06:35:33.293Z,99380.57
2022-09-28T06:38:21.827Z,99380.73
2022-09-28T06:41:12.142Z,99385.18
2022-09-28T06:44:03.460Z,99384.28
2022-09-28T06:47:12.067Z,99383.94
2022-09-28T06:50:28.978Z,99379.30
2022-09-28T06:53:38.935Z,99381.62
2022-09-28T06:56:56.977Z,99390.89
2022-09-28T06:59:45.525Z,99384.65
2022-09-28T07:02:33.918Z,99393.36
2022-09-28T07:05:52.132Z,99395.65
2022-09-28T07:09:31.819Z,99401.17
2022-09-28T07:12:42.748Z,99397.03
2022-09-28T07:15:45.424Z,99405.22
2022-09-28T07:18:36.639Z,99401.34
2022-09-28T07:21:30.213Z,99398.80
2022-09-28T07:24:24.767Z,99414.75
2022-09-28T07:27:36.693Z,99407.92
2022-09-28T07:30:44.251Z,99409.88
2022-09-28T07:33:53.525Z,99410.25
2022-09-28T07:36:59.188Z,99410.89
2022-09-28T07:40:07.285Z,99405.05
2022-09-28T07:43:05.192Z,99413.98
2022-09-28T07:45:55.271Z,99407.63
2022-09-28T07:48:45.429Z,99420.03
2022-09-28T07:51:56.097Z,99416.05
2022-09-28T07:54:44.644Z,99420.63
2022-09-28T07:57:47.737Z,99421.47
2022-09-28T08:00:47.873Z,99429.80
2022-09-28T08:03:38.745Z,99426.34
2022-09-28T08:06:27.315Z,99420.95
2022-09-28T08:09:16.317Z,99418.48
2022-09-28T08:12:23.871Z,99422.52
2022-09-28T08:15:36.497Z,99417.38
2022-09-28T08:18:43.160Z,99427.55
2022-09-28T08:21:44.900Z,99418.36
2022-09-28T08:24:33.368Z,99418.03
2022-09-28T08:27:22.535Z,99416.38
2022-09-28T08:30:12.810Z,99416.31
2022-09-28T08:33:28.131Z,99412.73
2022-09-28T08:36:36.312Z,99410.77
2022-09-28T08:39:47.954Z,99420.65
2022-09-28T08:43:01.745Z,99415.41
2022-09-28T08:46:12.652Z,99420.97
2022-09-28T08:49:38.150Z,99418.95
2022-09-28T08:52:39.822Z,99413.20
2022-09-28T08:55:49.130Z,99420.32
2022-09-28T08:58:43.624Z,99410.51
2022-09-28T09:01:39.130Z,99413.67
2022-09-28T09:04:33.416Z,99394.66
2022-09-28T09:08:08.808Z,99392.88
2022-09-28T09:11:09.295Z,99391.41
2022-09-28T09:14:21.627Z,99400.67
2022-09-28T09:17:23.260Z,99397.25
2022-09-28T09:20:47.654Z,99404.94
2022-09-28T09:23:54.557Z,99392.88
2022-09-28T09:26:43.592Z,99401.14
2022-09-28T09:29:46.032Z,99396.36
2022-09-28T09:33:12.921Z,99407.55
2022-09-28T09:36:34.854Z,99395.70
2022-09-28T09:40:22.808Z,99395.12
2022-09-28T09:43:43.182Z,99395.16
2022-09-28T09:47:08.277Z,99392.45
2022-09-28T09:50:29.615Z,99399.27
2022-09-28T09:53:26.191Z,99404.23
2022-09-28T09:56:19.218Z,99397.80
2022-09-28T09:59:39.918Z,99392.39
2022-09-28T10:02:42.367Z,99393.88
2022-09-28T10:05:44.406Z,99385.04
2022-09-28T10:08:47.754Z,99385.61
2022-09-28T10:11:41.388Z,99390.19
2022-09-28T10:14:30.797Z,99383.75
2022-09-28T10:17:29.402Z,99392.17
2022-09-28T10:20:39.941Z,99388.11
2022-09-28T10:23:45.359Z,99396.29
2022-09-28T10:26:39.089Z,99397.97
2022-09-28T10:29:35.731Z,99391.80
2022-09-28T10:32:26.610Z,99384.02
2022-09-28T10:35:27.091Z,99385.98
2022-09-28T10:38:21.940Z,99398.01
2022-09-28T10:41:18.704Z,99379.70
2022-09-28T10:44:20.135Z,99401.76
2022-09-28T10:47:28.275Z,99395.08
2022-09-28T10:50:22.585Z,99395.77
2022-09-28T10:53:19.874Z,99395.14
2022-09-28T10:56:29.220Z,99391.17
2022-09-28T10:59:37.564Z,99395.83
2022-09-28T11:02:45.694Z,99387.22
2022-09-28T11:05:43.410Z,99391.87
2022-09-28T11:08:38.439Z,99393.33
2022-09-28T11:11:29.526Z,99384.73
2022-09-28T11:14:30.916Z,99392.28
2022-09-28T11:17:27.555Z,99390.70
2022-09-28T11:20:35.264Z,99393.42
2022-09-28T11:23:30.531Z,99387.35
2022-09-28T11:26:24.507Z,99389.13
2022-09-28T11:29:26.484Z,99389.12
2022-09-28T11:32:44.711Z,99378.72
2022-09-28T11:35:46.877Z,99392.97
2022-09-28T11:38:46.871Z,99389.14
2022-09-28T11:41:59.782Z,99379.22
2022-09-28T11:44:55.960Z,99374.09
2022-09-28T11:47:52.867Z,99378.56
2022-09-28T11:50:50.384Z,99380.33
2022-09-28T11:53:43.906Z,99375.37
2022-09-28T11:56:38.187Z,99379.38
2022-09-28T11:59:32.065Z,99375.70
2022-09-28T12:02:26.278Z,99370.41
2022-09-28T12:05:30.494Z,99370.41
2022-09-28T12:08:24.953Z,99371.36
2022-09-28T12:11:33.141Z,99375.03
2022-09-28T12:14:40.961Z,99364.16
2022-09-28T12:17:34.990Z,99371.67
2022-09-28T12:20:27.025Z,99362.08
2022-09-28T12:23:18.478Z,99360.30
2022-09-28T12:26:12.801Z,99358.06
2022-09-28T12:29:06.486Z,99356.77
2022-09-28T12:32:02.747Z,99358.66
2022-09-28T12:34:51.764Z,99354.95
2022-09-28T12:37:54.685Z,99354.30
2022-09-28T12:40:52.976Z,99363.88
2022-09-28T12:44:12.612Z,99359.38
2022-09-28T12:47:22.357Z,99361.78
2022-09-28T12:50:41.576Z,99355.34
2022-09-28T12:53:49.790Z,99359.52
2022-09-28T12:56:45.100Z,99363.52
2022-09-28T12:59:38.360Z,99344.77
2022-09-28T13:02:51.984Z,99354.07
2022-09-28T13:06:16.335Z,99362.11
2022-09-28T13:09:16.155Z,99355.34
2022-09-28T13:12:20.879Z,99355.34
2022-09-28T13:15:29.509Z,99360.98
2022-09-28T13:18:28.012Z,99362.11
2022-09-28T13:21:28.318Z,99355.84
2022-09-28T13:24:34.098Z,99369.16
2022-09-28T13:27:29.785Z,99365.45
2022-09-28T13:30:19.361Z,99368.02
2022-09-28T13:33:16.642Z,99368.83
2022-09-28T13:36:26.769Z,99366.77
2022-09-28T13:39:51.469Z,99368.20
2022-09-28T13:43:10.021Z,99376.55
2022-09-28T13:46:09.063Z,99366.17
2022-09-28T13:49:06.577Z,99376.24
2022-09-28T13:52:06.736Z,99367.30
2022-09-28T13:55:12.555Z,99380.73
2022-09-28T13:58:06.562Z,99384.45
2022-09-28T14:01:02.389Z,99386.22
2022-09-28T14:04:11.402Z,99386.05
2022-09-28T14:07:11.427Z,99391.36
2022-09-28T14:10:40.301Z,99398.23
2022-09-28T14:14:00.798Z,99391.70
2022-09-28T14:16:52.371Z,99389.28
2022-09-28T14:19:43.253Z,99385.30
2022-09-28T14:22:43.196Z,99385.95
2022-09-28T14:25:35.446Z,99400.97
2022-09-28T14:28:40.787Z,99395.19
2022-09-28T14:31:32.037Z,99401.91
2022-09-28T14:34:33.620Z,99403.67
2022-09-28T14:37:47.028Z,99404.65
2022-09-28T14:41:14.901Z,99411.03
2022-09-28T14:44:08.723Z,99407.20
2022-09-28T14:47:32.351Z,99404.64
2022-09-28T14:50:25.521Z,99401.91
2022-09-28T14:53:19.134Z,99398.55
2022-09-28T14:56:09.668Z,99393.91
2022-09-28T14:58:59.002Z,99397.56
2022-09-28T15:01:51.479Z,99406.98
2022-09-28T15:04:44.290Z,99403.89
2022-09-28T15:07:47.585Z,99406.27
2022-09-28T15:10:41.534Z,99407.53
2022-09-28T15:13:31.659Z,99418.55
2022-09-28T15:16:24.330Z,99413.87
2022-09-28T15:19:23.578Z,99415.14
2022-09-28T15:22:18.032Z,99416.39
2022-09-28T15:25:15.301Z,99431.70
2022-09-28T15:28:18.272Z,99427.84
2022-09-28T15:31:07.246Z,99437.86
2022-09-28T15:34:14.483Z,99444.04
2022-09-28T15:37:08.706Z,99446.98
2022-09-28T15:39:59.057Z,99447.69
2022-09-28T15:42:48.265Z,99440.30
2022-09-28T15:45:40.079Z,99439.14
2022-09-28T15:48:36.241Z,99443.08
2022-09-28T15:51:26.915Z,99446.20
2022-09-28T15:54:18.838Z,99442.63
2022-09-28T15:57:28.492Z,99446.06
2022-09-28T16:00:29.951Z,99451.42
2022-09-28T16:03:28.129Z,99452.11
2022-09-28T16:06:17.083Z,99457.75
2022-09-28T16:09:25.503Z,99465.49
2022-09-28T16:12:14.255Z,99469.52
2022-09-28T16:15:12.432Z,99465.91
2022-09-28T16:18:04.231Z,99460.69
2022-09-28T16:20:54.426Z,99463.28
2022-09-28T16:23:50.370Z,99459.67
2022-09-28T16:26:39.936Z,99458.73
2022-09-28T16:29:35.712Z,99448.59
2022-09-28T16:32:41.008Z,99459.91
2022-09-28T16:35:32.609Z,99468.20
2022-09-28T16:38:22.000Z,99462.47
2022-09-28T16:41:11.576Z,99462.91
2022-09-28T16:44:02.124Z,99468.48
2022-09-28T16:46:54.504Z,99481.38
2022-09-28T16:49:42.961Z,99485.29
2022-09-28T16:52:46.087Z,99490.84
2022-09-28T16:55:40.717Z,99486.16
2022-09-28T16:58:30.936Z,99490.09
2022-09-28T17:01:21.592Z,99495.31
2022-09-28T17:04:11.635Z,99495.44
2022-09-28T17:06:59.865Z,99494.74
2022-09-28T17:09:49.028Z,99494.61
2022-09-28T17:12:37.988Z,99487.47
2022-09-28T17:15:26.811Z,99488.39
2022-09-28T17:18:17.341Z,99483.89
2022-09-28T17:21:11.270Z,99492.33
2022-09-28T17:24:00.381Z,99481.33
2022-09-28T17:26:51.123Z,99491.65
2022-09-28T17:29:39.528Z,99493.86
2022-09-28T17:32:28.082Z,99496.38
2022-09-28T17:35:26.036Z,99497.77
2022-09-28T17:38:16.198Z,99495.64
2022-09-28T17:41:04.775Z,99501.63
2022-09-28T17:43:53.141Z,99510.31
2022-09-28T17:46:47.003Z,99517.91
2022-09-28T17:49:35.562Z,99511.48
2022-09-28T17:52:24.113Z,99518.28
2022-09-28T17:55:13.071Z,99516.70
2022-09-28T17:58:03.810Z,99507.03
2022-09-28T18:00:52.833Z,99508.39
2022-09-28T18:03:42.002Z,99508.42
2022-09-28T18:06:32.190Z,99498.48
2022-09-28T18:09:24.548Z,99504.98
2022-09-28T18:12:13.592Z,99503.09
2022-09-28T18:15:02.364Z,99498.81
2022-09-28T18:17:51.512Z,99482.11
2022-09-28T18:20:41.701Z,99491.28
2022-09-28T18:23:31.070Z,99496.68
2022-09-28T18:26:19.675Z,99491.59
2022-09-28T18:29:08.375Z,99505.86
2022-09-28T18:31:56.926Z,99505.34
2022-09-28T18:34:45.884Z,99508.03
2022-09-28T18:37:39.481Z,99510.73
2022-09-28T18:40:28.938Z,99510.74
2022-09-28T18:43:17.884Z,99517.99
2022-09-28T18:46:11.482Z,99513.44
2022-09-28T18:49:00.104Z,99516.67
2022-09-28T18:51:49.069Z,99515.59
2022-09-28T18:54:38.554Z,99506.45
2022-09-28T18:57:28.006Z,99517.75
2022-09-28T19:00:17.380Z,99509.94
2022-09-28T19:03:10.395Z,99515.59
2022-09-28T19:05:59.191Z,99523.13
2022-09-28T19:08:53.816Z,99527.14
2022-09-28T19:11:41.873Z,99526.35
2022-09-28T19:14:30.575Z,99513.16
2022-09-28T19:17:19.738Z,99515.31
2022-09-28T19:20:10.137Z,99517.46
2022-09-28T19:22:59.329Z,99518.28
2022-09-28T19:25:47.851Z,99530.37
2022-09-28T19:28:36.808Z,99529.58
2022-09-28T19:31:27.208Z,99522.58
2022-09-28T19:34:17.319Z,99525.27
2022-09-28T19:37:06.559Z,99524.45
2022-09-28T19:39:56.133Z,99529.03
2022-09-28T19:42:44.885Z,99527.67
2022-09-28T19:45:37.532Z,99537.60
2022-09-28T19:48:28.336Z,99539.75
2022-09-28T19:51:17.089Z,99539.21
2022-09-28T19:54:07.053Z,99538.67
2022-09-28T19:56:56.034Z,99542.44
2022-09-28T19:59:46.664Z,99543.50
2022-09-28T20:02:40.762Z,99546.20
2022-09-28T20:05:29.467Z,99545.66
2022-09-28T20:08:21.423Z,99540.53
2022-09-28T20:11:10.028Z,99545.36
2022-09-28T20:13:59.749Z,99549.95
2022-09-28T20:16:48.179Z,99553.16
2022-09-28T20:19:37.770Z,99555.31
2022-09-28T20:22:26.508Z,99552.08
2022-09-28T20:25:15.672Z,99547.78
2022-09-28T20:28:06.208Z,99551.00
2022-09-28T20:30:56.725Z,99553.67
2022-09-28T20:33:45.215Z,99553.92
2022-09-28T20:36:34.889Z,99559.03
2022-09-28T20:39:23.745Z,99561.42
2022-09-28T20:42:15.189Z,99559.27
2022-09-28T20:45:03.713Z,99561.69
2022-09-28T20:47:52.265Z,99572.41
2022-09-28T20:50:42.248Z,99570.25
2022-09-28T20:53:31.210Z,99578.01
2022-09-28T20:56:22.045Z,99583.36
2022-09-28T20:59:13.052Z,99586.84
2022-09-28T21:02:02.088Z,99577.94
2022-09-28T21:04:51.349Z,99593.78
2022-09-28T21:07:40.307Z,99596.44
2022-09-28T21:10:29.883Z,99609.83
2022-09-28T21:13:19.046Z,99600.92
2022-09-28T21:16:09.789Z,99603.58
2022-09-28T21:18:59.834Z,99604.03
2022-09-28T21:21:48.558Z,99605.61
2022-09-28T21:24:37.958Z,99604.78
2022-09-28T21:27:26.510Z,99608.22
2022-09-28T21:30:19.504Z,99616.23
2022-09-28T21:33:08.527Z,99612.72
2022-09-28T21:36:00.415Z,99618.05
2022-09-28T21:38:48.905Z,99616.94
2022-09-28T21:41:38.270Z,99615.00
2022-09-28T21:44:26.617Z,99618.47
2022-09-28T21:47:15.370Z,99629.70
2022-09-28T21:50:06.294Z,99621.34
2022-09-28T21:52:56.609Z,99624.53
2022-09-28T21:55:46.143Z,99622.36
2022-09-28T21:58:35.917Z,99622.88
2022-09-28T22:01:26.394Z,99615.09
2022-09-28T22:04:16.389Z,99619.91
2022-09-28T22:07:05.259Z,99611.30
2022-09-28T22:09:54.423Z,99616.11
2022-09-28T22:12:42.975Z,99619.03
2022-09-28T22:15:32.551Z,99610.70
2022-09-28T22:18:21.300Z,99617.12
2022-09-28T22:21:13.512Z,99616.80
2022-09-28T22:24:02.101Z,99619.20
2022-09-28T22:26:51.274Z,99615.13
2022-09-28T22:29:39.803Z,99618.08
2022-09-28T22:32:29.138Z,99614.84
2022-09-28T22:35:17.924Z,99609.72
2022-09-28T22:38:06.890Z,99609.72
2022-09-28T22:40:57.062Z,99607.04
2022-09-28T22:43:46.881Z,99610.78
2022-09-28T22:46:35.973Z,99610.78
2022-09-28T22:49:26.005Z,99611.61
2022-09-28T22:52:14.556Z,99611.05
2022-09-28T22:55:03.924Z,99616.41
2022-09-28T22:57:52.475Z,99609.98
2022-09-28T23:00:42.635Z,99608.09
2022-09-28T23:03:31.212Z,99616.14
2022-09-28T23:06:21.608Z,99622.33
2022-09-28T23:09:09.934Z,99623.39
2022-09-28T23:11:59.936Z,99619.09
2022-09-28T23:14:48.484Z,99615.85
2022-09-28T23:17:38.058Z,99618.27
2022-09-28T23:20:27.020Z,99625.24
2022-09-28T23:23:16.390Z,99621.50
2022-09-28T23:26:13.278Z,99613.22
2022-09-28T23:29:02.098Z,99609.48
2022-09-28T23:31:50.640Z,99611.10
2022-09-28T23:34:39.808Z,99621.83
2022-09-28T23:37:28.564Z,99618.88
2022-09-28T23:40:17.568Z,99617.81
2022-09-28T23:43:07.098Z,99615.13
2022-09-28T23:45:56.055Z,99614.90
2022-09-28T23:48:44.813Z,99610.33
2022-09-28T23:51:33.362Z,99602.28
2022-09-28T23:54:22.537Z,99595.86
2022-09-28T23:57:11.499Z,99607.41
2022-09-28T23:59:59.832Z,99614.39
